Terminal Aerodrome Forecast
Issued by NWS

Home | Current Version | Previous Version | Graphics & Text | Print | Product List | Glossary On
Versions: 1 2 3 4 5 6 7 8 9 10 11 12
000
FTUS45 KGGW 172300
TAFGDV
TAF
KGDV 172332Z 1800/1824 14015KT P6SM SCT050 OVC090
     FM180200 14015KT P6SM VCSH BKN050 OVC100
     FM180700 13014KT P6SM BKN100
     FM182200 27013KT P6SM VCSH BKN050 OVC100
      AMD LTD TO CLD VIS AND WIND=

USA.gov is the U.S. government's official web portal to all federal, state and local government web resources and services.